Latest Weather Observations for Mount Gambier

IDS60801

Issued at 11:02 am CDT Sunday 1 March 2015 (issued every 30 minutes, with the page automatically refreshed every 10 minutes)

About weather observations | Map of weather stations | Latest weather observations for SA | Other Formats
Station Details ID: 026021 Name: MOUNT GAMBIER AERO Lat: -37.75 Lon: 140.77 Height: 63.0 m
Data from the previous 72 hours. | See also: Recent months at Mount Gambier
Date/Time
CDT
Temp
°C
App
Temp
°C
Dew
Point
Rel
Hum
%
Delta-T
°C
Wind Press
QNH
hPa
Press
MSL
hPa
Rain
since 9 am
mm
Dir
 
Spd
km/h
Gust
km/h
Spd
kts
Gust
kts
01/11:00am 18.4 13.4 10.8 61 4.1 S 28 37 15 20 1016.6 - 0.0
01/10:30am 17.3 13.1 11.2 67 3.3 S 24 33 13 18 1016.2 - 0.0
01/10:00am 16.0 10.7 12.4 79 2.0 S 32 43 17 23 1015.6 - 0.0
01/09:30am 17.5 12.8 11.9 69 3.1 S 28 33 15 18 1015.3 - 0.0
01/09:00am 16.5 12.8 12.7 78 2.1 S 24 32 13 17 1014.7 1014.6 1.6
01/08:30am 15.7 14.2 13.2 85 1.4 SSW 13 17 7 9 1014.3 - 1.6
01/08:00am 13.4 11.8 11.5 88 1.0 SW 11 15 6 8 1013.6 - 1.6
01/07:30am 12.7 11.1 11.4 92 0.7 SW 11 15 6 8 1013.0 - 1.6
01/07:00am 11.3 9.8 10.5 95 0.4 W 9 11 5 6 1012.4 - 1.6
01/06:30am 10.8 9.0 9.6 92 0.6 WNW 9 11 5 6 1011.8 - 1.6
01/06:00am 12.1 10.2 10.4 89 0.9 W 11 13 6 7 1011.1 1011.0 1.6
01/05:30am 12.5 11.0 10.6 88 1.0 W 9 11 5 6 1010.7 - 1.6
01/05:00am 12.1 11.0 10.6 90 0.8 WNW 7 9 4 5 1010.4 - 1.6
01/04:30am 12.2 11.0 10.3 88 1.0 W 7 9 4 5 1010.2 - 1.4
01/04:00am 12.1 9.7 10.0 87 1.1 W 13 13 7 7 1009.8 - 1.4
01/03:30am 12.1 10.5 10.2 88 1.0 WNW 9 13 5 7 1009.6 - 1.4
01/03:00am 12.5 10.6 10.4 87 1.1 W 11 13 6 7 1009.6 1009.5 1.4
01/02:30am 12.8 10.6 10.9 88 1.0 W 13 13 7 7 1009.4 - 1.4
01/02:00am 13.4 11.0 11.5 88 1.0 W 15 17 8 9 1009.4 - 1.4
01/01:30am 14.1 11.6 12.3 89 1.0 W 17 19 9 10 1009.4 - 1.4
01/01:00am 14.0 12.1 12.9 93 0.6 W 15 19 8 10 1009.5 - 1.4
01/12:39am 14.1 12.2 13.0 93 0.6 W 15 19 8 10 1009.3 - 1.4
01/12:30am 14.2 12.7 13.1 93 0.6 W 13 19 7 10 1009.4 - 1.4
01/12:25am 14.2 13.0 12.9 92 0.7 WNW 11 15 6 8 1009.3 - 1.4
01/12:00am 13.2 12.1 12.1 93 0.6 NW 9 11 5 6 1009.1 1009.0 1.2
 
Date/Time
CDT
Temp
°C
App
Temp
°C
Dew
Point
Rel
Hum
%
Delta-T
°C
Wind Press
QNH
hPa
Press
MSL
hPa
Rain
since 9 am
mm
Dir
 
Spd
km/h
Gust
km/h
Spd
kts
Gust
kts
28/11:30pm 14.0 12.6 12.3 89 0.9 W 11 13 6 7 1009.2 - 1.2
28/11:00pm 14.6 13.3 12.4 87 1.2 WSW 11 15 6 8 1009.2 - 1.2
28/10:30pm 15.0 12.8 12.1 83 1.6 WSW 15 17 8 9 1009.2 - 1.2
28/10:00pm 15.4 13.3 12.5 83 1.6 WSW 15 19 8 10 1009.1 - 1.2
28/09:30pm 16.1 13.8 12.9 81 1.8 SW 17 20 9 11 1008.6 - 1.2
28/09:00pm 16.0 14.1 13.0 82 1.7 SW 15 20 8 11 1008.0 1007.9 1.2
28/08:30pm 16.5 14.4 13.5 82 1.7 SW 17 22 9 12 1007.5 - 1.2
28/08:00pm 16.6 13.6 13.6 82 1.7 SW 22 32 12 17 1007.2 - 1.2
28/07:58pm 16.7 13.6 13.5 81 1.8 SW 22 32 12 17 1007.1 - 1.2
28/07:30pm 17.3 14.2 14.5 83 1.6 SW 24 32 13 17 1006.5 - 1.2
28/07:20pm 17.8 14.9 15.1 84 1.6 SW 24 32 13 17 1006.4 - 1.2
28/07:00pm 18.0 14.9 15.5 85 1.5 SW 26 33 14 18 1006.2 - 1.2
28/06:55pm 18.0 14.5 15.5 85 1.5 WSW 28 35 15 19 1006.1 - 1.2
28/06:30pm 18.3 16.5 16.0 86 1.4 WSW 20 30 11 16 1005.6 - 1.2
28/06:29pm 18.3 16.5 16.0 86 1.4 WSW 20 30 11 16 1005.6 - 1.2
28/06:00pm 18.7 17.1 16.4 86 1.4 SW 20 28 11 15 1004.9 1004.8 1.2
28/05:30pm 18.3 16.7 16.5 89 1.1 SW 20 28 11 15 1004.7 - 1.2
28/05:02pm 18.4 17.1 16.7 90 1.0 SW 19 28 10 15 1004.2 - 1.2
28/05:00pm 18.3 17.0 16.8 91 0.9 SW 19 28 10 15 1004.0 - 1.2
28/04:48pm 18.4 15.4 16.9 91 0.9 WSW 28 46 15 25 1004.1 - 0.8
28/04:43pm 18.9 15.0 16.9 88 1.2 WSW 33 46 18 25 1004.3 - 0.6
28/04:39pm 19.7 14.8 16.4 81 2.0 W 37 46 20 25 1005.3 - 0.0
28/04:30pm 21.2 18.0 15.2 68 3.6 SW 26 33 14 18 1003.6 - 0.0
28/04:00pm 22.9 18.0 15.2 62 4.6 SW 35 48 19 26 1002.5 - 0.0
28/03:30pm 25.3 20.9 15.2 53 6.1 SW 32 39 17 21 1002.5 - 0.0
28/03:00pm 25.8 21.0 14.1 48 7.0 W 32 39 17 21 1002.9 1002.8 0.0
28/02:30pm 27.2 21.8 13.8 43 8.0 W 35 48 19 26 1002.8 - 0.0
28/02:00pm 28.1 21.0 13.5 40 8.7 W 43 54 23 29 1002.8 - 0.0
28/01:30pm 28.6 22.3 13.6 39 9.0 WSW 39 52 21 28 1002.6 - 0.0
28/01:23pm 28.2 22.5 14.1 42 8.5 WSW 37 46 20 25 1002.5 - 0.0
28/01:07pm 30.9 24.9 10.9 29 11.5 WNW 33 57 18 31 1002.3 - 0.0
28/01:00pm 30.9 24.7 11.4 30 11.3 W 35 44 19 24 1002.4 - 0.0
28/12:30pm 30.6 25.3 11.2 30 11.2 NW 30 48 16 26 1002.7 - 0.0
28/12:23pm 29.6 24.3 11.3 32 10.6 NNW 30 48 16 26 1002.9 - 0.0
28/12:00pm 30.2 26.0 11.0 30 11.1 NNW 24 37 13 20 1003.1 1003.0 0.0
28/11:30am 28.5 24.6 12.1 36 9.6 N 24 32 13 17 1003.3 - 0.0
28/11:00am 25.6 22.1 12.3 43 7.7 N 22 32 12 17 1003.5 - 0.0
28/10:30am 23.8 21.6 13.2 51 6.2 N 17 19 9 10 1003.7 - 0.0
28/10:00am 22.5 20.4 13.6 57 5.2 N 17 22 9 12 1004.0 - 0.0
28/09:30am 22.1 19.8 14.1 60 4.7 N 19 30 10 16 1004.2 - 0.0
28/09:00am 21.1 19.7 14.5 66 3.9 N 15 20 8 11 1004.3 1004.2 0.4
28/08:30am 20.6 18.9 14.7 69 3.5 N 17 20 9 11 1004.3 - 0.4
28/08:00am 20.3 19.0 14.7 70 3.3 N 15 20 8 11 1004.1 - 0.4
28/07:30am 19.9 17.9 15.0 73 2.9 N 19 26 10 14 1004.0 - 0.4
28/07:00am 20.0 17.8 14.9 72 3.0 NNE 20 28 11 15 1003.8 - 0.4
28/06:30am 19.9 17.7 14.8 72 3.0 N 20 30 11 16 1003.8 - 0.4
28/06:00am 20.3 16.4 13.3 64 4.0 N 26 32 14 17 1003.9 1003.8 0.4
28/05:30am 19.6 16.7 12.9 65 3.8 N 20 26 11 14 1003.8 - 0.4
28/05:00am 19.1 16.8 13.1 68 3.4 N 17 22 9 12 1003.7 - 0.4
28/04:30am 18.8 17.3 13.2 70 3.2 N 13 19 7 10 1004.0 - 0.4
28/04:00am 18.1 16.3 13.4 74 2.7 N 15 19 8 10 1004.3 - 0.4
28/03:30am 17.5 15.0 13.5 77 2.3 N 19 20 10 11 1004.6 - 0.4
28/03:00am 17.0 15.7 13.7 81 1.9 NE 13 19 7 10 1004.5 1004.4 0.4
28/02:30am 16.8 14.3 13.6 81 1.8 NNE 19 26 10 14 1005.4 - 0.4
28/02:00am 16.6 14.1 13.6 82 1.7 NNE 19 24 10 13 1006.0 - 0.4
28/01:30am 16.3 15.1 14.0 86 1.3 NNE 13 17 7 9 1006.5 - 0.4
28/01:00am 16.3 14.7 13.8 85 1.4 NE 15 17 8 9 1006.8 - 0.4
28/12:30am 16.2 15.0 14.1 87 1.2 ENE 13 17 7 9 1007.2 - 0.4
28/12:00am 16.3 15.6 14.2 87 1.2 NE 11 13 6 7 1008.4 1008.3 0.4
 
Date/Time
CDT
Temp
°C
App
Temp
°C
Dew
Point
Rel
Hum
%
Delta-T
°C
Wind Press
QNH
hPa
Press
MSL
hPa
Rain
since 9 am
mm
Dir
 
Spd
km/h
Gust
km/h
Spd
kts
Gust
kts
27/11:30pm 16.2 15.4 14.1 87 1.2 NNE 11 13 6 7 1009.2 - 0.4
27/11:00pm 16.1 15.7 14.2 88 1.1 NE 9 11 5 6 1009.8 - 0.4
27/10:30pm 16.1 15.4 14.4 90 1.0 ENE 11 13 6 7 1010.1 - 0.4
27/10:00pm 16.2 15.4 14.1 87 1.2 ENE 11 13 6 7 1010.3 - 0.0
27/09:30pm 16.4 15.8 13.6 83 1.6 E 9 11 5 6 1010.1 - 0.0
27/09:00pm 16.6 15.9 13.2 80 1.9 E 9 11 5 6 1009.9 1009.8 0.0
27/08:30pm 17.2 16.3 12.5 74 2.6 SE 9 13 5 7 1010.0 - 0.0
27/08:00pm 17.3 16.5 12.8 75 2.5 SE 9 13 5 7 1009.9 - 0.0
27/07:30pm 17.9 16.2 12.3 70 3.1 SE 13 15 7 8 1009.7 - 0.0
27/07:00pm 18.3 16.1 12.2 67 3.4 SE 15 19 8 10 1009.4 - 0.0
27/06:30pm 19.0 15.9 12.2 64 3.8 SSE 20 26 11 14 1009.5 - 0.0
27/06:00pm 19.3 17.0 11.9 62 4.1 S 15 19 8 10 1009.5 1009.4 0.0
27/05:30pm 19.3 15.8 12.1 63 4.0 S 22 28 12 15 1009.4 - 0.0
27/05:00pm 20.2 15.9 12.0 59 4.6 S 26 32 14 17 1009.2 - 0.0
27/04:30pm 20.9 16.3 12.2 57 4.9 S 28 33 15 18 1009.0 - 0.0
27/04:00pm 23.5 20.0 12.1 48 6.5 S 22 30 12 16 1008.7 - 0.0
27/03:30pm 25.3 22.0 10.9 40 8.1 SSE 19 26 10 14 1008.8 - 0.0
27/03:00pm 24.5 22.8 8.5 36 8.6 SSW 7 13 4 7 1009.0 1008.9 0.0
27/02:30pm 24.4 22.8 8.9 37 8.4 SSE 7 11 4 6 1009.5 - 0.0
27/02:00pm 24.1 22.8 9.9 40 7.8 SSE 7 17 4 9 1009.8 - 0.0
27/01:30pm 23.1 21.0 11.1 46 6.7 S 13 20 7 11 1010.4 - 0.0
27/01:00pm 22.6 20.9 11.3 48 6.3 SW 11 19 6 10 1011.0 - 0.0
27/12:30pm 22.2 21.3 11.5 50 6.0 NNE 7 13 4 7 1011.0 - 0.0
27/12:00pm 20.7 19.8 11.5 55 5.1 NNW 7 11 4 6 1011.1 1011.0 0.0
27/11:30am 18.7 18.1 12.2 66 3.6 E 7 11 4 6 1011.7 - 0.0
27/11:05am 17.6 16.6 13.4 76 2.4 E 11 17 6 9 1011.9 - 0.0
27/11:00am 17.8 16.8 13.4 75 2.5 E 11 17 6 9 1012.0 - 0.0
27/10:30am 16.9 15.6 13.7 81 1.8 E 13 17 7 9 1012.0 - 0.0
27/10:00am 15.2 14.9 14.5 96 0.4 E 9 15 5 8 1012.2 - 0.0
27/09:30am 14.6 13.9 14.2 97 0.2 ENE 11 15 6 8 1012.0 - 0.0
27/09:28am 14.4 13.3 14.4 100 0.0 ENE 13 17 7 9 1011.9 - 0.0
27/09:00am 14.3 13.6 14.3 100 0.0 ENE 11 15 6 8 1011.8 1011.6 0.0
27/08:30am 14.0 12.8 14.0 100 0.0 ENE 13 17 7 9 1011.4 - 0.0
27/08:00am 13.2 12.4 13.0 99 0.1 ENE 9 13 5 7 1011.6 - 0.0
27/07:30am 12.2 12.8 12.0 99 0.1 CALM 0 0 0 0 1011.6 - 0.0
27/07:00am 11.9 11.7 11.7 99 0.1 NE 4 7 2 4 1011.1 - 0.0
27/06:30am 12.1 11.0 11.9 99 0.1 E 9 9 5 5 1010.4 - 0.0
27/06:00am 12.6 13.4 12.4 99 0.1 CALM 0 9 0 5 1010.4 1010.3 0.0
27/05:30am 12.9 12.4 12.5 97 0.2 ENE 7 9 4 5 1010.7 - 0.0
27/05:00am 13.0 13.5 12.8 99 0.1 E 2 7 1 4 1010.4 - 0.0
27/04:30am 13.1 12.7 12.9 99 0.1 ENE 7 9 4 5 1010.4 - 0.0
27/04:00am 13.5 13.1 13.1 97 0.2 E 7 9 4 5 1010.3 - 0.0
27/03:30am 13.8 13.6 13.6 99 0.1 SE 7 9 4 5 1010.6 - 0.0
27/03:00am 14.1 13.9 13.7 97 0.2 WSW 7 7 4 4 1011.1 1011.0 0.0
27/02:30am 14.1 14.1 13.7 97 0.2 W 6 7 3 4 1010.9 - 0.0
27/02:00am 13.1 13.9 12.5 96 0.3 CALM 0 2 0 1 1011.2 - 0.0
27/01:59am 13.1 13.9 12.5 96 0.3 CALM 0 2 0 1 1011.2 - 0.0
27/01:30am 13.7 13.5 13.0 96 0.4 SE 6 9 3 5 1011.1 - 0.0
27/01:18am 14.0 14.6 13.1 94 0.5 SSW 2 6 1 3 1011.8 - 0.0
27/01:00am 14.3 15.1 13.6 96 0.4 NNE 2 9 1 5 1012.1 - 0.0
27/12:30am 15.3 15.5 14.6 96 0.4 SSE 7 7 4 4 1011.9 - 0.0
27/12:00am 16.1 16.4 14.9 93 0.7 S 7 9 4 5 1012.4 1012.2 0.0
 
Date/Time
CDT
Temp
°C
App
Temp
°C
Dew
Point
Rel
Hum
%
Delta-T
°C
Wind Press
QNH
hPa
Press
MSL
hPa
Rain
since 9 am
mm
Dir
 
Spd
km/h
Gust
km/h
Spd
kts
Gust
kts
26/11:30pm 16.3 16.2 14.9 91 0.8 SW 9 11 5 6 1012.5 - 0.0
26/11:00pm 16.4 15.9 14.8 90 0.9 SW 11 13 6 7 1012.3 - 0.0
26/10:30pm 16.7 16.1 14.6 87 1.2 SW 11 15 6 8 1012.2 - 0.0
26/10:00pm 17.6 16.6 14.7 83 1.7 SW 13 17 7 9 1012.4 - 0.0
26/09:30pm 17.8 16.8 14.7 82 1.8 SW 13 17 7 9 1012.3 - 0.0
26/09:20pm 17.9 16.9 14.6 81 1.9 SW 13 17 7 9 1012.3 - 0.0
26/09:00pm 17.9 16.5 14.4 80 2.0 SSW 15 19 8 10 1012.0 1011.8 0.0
26/08:30pm 17.8 16.1 14.7 82 1.8 S 17 22 9 12 1011.8 - 0.0
26/08:19pm 17.6 16.6 14.5 82 1.8 SSW 13 17 7 9 1011.6 - 0.0
26/08:00pm 17.6 15.5 14.7 83 1.7 S 19 24 10 13 1011.6 - 0.0
26/07:30pm 19.3 16.9 14.5 74 2.8 SSW 20 28 11 15 1011.2 - 0.0
26/07:00pm 20.6 18.2 13.9 65 3.9 SW 19 24 10 13 1011.1 - 0.0
26/06:30pm 21.4 18.6 13.2 59 4.7 SW 20 26 11 14 1010.7 - 0.0
26/06:00pm 22.6 18.8 13.5 56 5.3 SSW 26 33 14 18 1010.4 1010.3 0.0
26/05:30pm 22.9 19.7 13.2 54 5.6 SSW 22 28 12 15 1010.3 - 0.0
26/05:00pm 23.4 19.8 13.0 52 6.0 SSW 24 32 13 17 1010.1 - 0.0
26/04:30pm 24.2 20.3 12.1 46 6.9 SSW 24 33 13 18 1010.2 - 0.0
26/04:00pm 24.7 20.4 12.1 45 7.2 SW 26 35 14 19 1010.3 - 0.0
26/03:30pm 24.5 20.3 12.3 46 7.0 SW 26 35 14 19 1010.5 - 0.0
26/03:00pm 25.4 22.0 11.1 40 8.1 W 20 30 11 16 1010.7 1010.6 0.0
26/02:30pm 24.6 20.9 11.6 44 7.4 SSW 22 30 12 16 1010.9 - 0.0
26/02:00pm 24.9 21.9 12.0 44 7.4 WSW 19 30 10 16 1011.1 - 0.0
26/01:30pm 25.8 24.0 12.1 42 7.9 WSW 13 24 7 13 1011.3 - 0.0
26/01:00pm 23.8 21.9 11.8 47 6.8 WSW 13 19 7 10 1011.7 - 0.0
26/12:30pm 23.2 21.3 11.7 48 6.5 W 13 20 7 11 1012.1 - 0.0
26/12:00pm 21.2 18.7 11.1 52 5.6 SSW 15 22 8 12 1012.6 1012.4 0.0
26/11:30am 21.7 19.4 11.7 53 5.6 SW 15 24 8 13 1012.8 - 0.0

Other Formats:

Comma delimited format used in spreadsheet applications
http://www.bom.gov.au/fwo/IDS60801/IDS60801.94821.axf

JavaScript Object Notation format (JSON) in row-major order
http://www.bom.gov.au/fwo/IDS60801/IDS60801.94821.json